PWSweather.com
Personal Weather Stations
Station Observations
WODONGA
Wodonga, WodongaAU 3690

WodongaWodongaAU 3690

Lat: -36.121, Lon: 146.87

Elevation: 541

Station Type: Weather Station

http://www.wodongaweather.net

High Low Average
Temperature 51.1°F10.6°F 41.4°F5.2°F 45.4°F7.4°F
Dew Point 49.7°F9.8°F 41.1°F5.1°F 43.9°F6.6°F
Winds 18.4 mph NW29.6 mph NW 1.7 mph 2.7 mph 7.0 mph 11.3 mph
Wind Gusts 26.6 mph42.8 mph 3.1 mph5.0 mph 10.0 mph16.1 mph
Humidity 99% 85% 95%
Pressure 29.93 in1013.50 in 29.78 in1008.50 in -
Precipitation 1.89 in48.00 in - -
Hour Temp Dew Point Humidity Winds Wind Gusts Pressure Precip Precip Rate Daily Precip Total
12:00 AM 42.3°F5.7°C 42.0°F5.6°C 99% 7.8 mph NW12.6 kmh NW 13.0 mph20.9 kmh 29.81 in1009.5 mb 0.00 in0.0 mm 0.00 in0.0 mm 0.00 in0.0 mm
12:05 AM 42.3°F5.7°C 42.0°F5.6°C 99% 8.0 mph NW12.9 kmh NW 13.0 mph20.9 kmh 29.81 in1009.5 mb 0.00 in0.0 mm 0.00 in0.0 mm 0.00 in0.0 mm
12:10 AM 42.3°F5.7°C 42.0°F5.6°C 99% 7.5 mph NW12.1 kmh NW 10.7 mph17.2 kmh 29.81 in1009.5 mb 0.00 in0.0 mm 0.00 in0.0 mm 0.00 in0.0 mm
12:15 AM 42.3°F5.7°C 42.0°F5.6°C 99% 6.3 mph NW10.1 kmh NW 9.2 mph14.8 kmh 29.81 in1009.5 mb 0.00 in0.0 mm 0.00 in0.0 mm 0.00 in0.0 mm
12:20 AM 42.3°F5.7°C 42.0°F5.6°C 99% 5.5 mph NW8.9 kmh NW 9.2 mph14.8 kmh 29.81 in1009.5 mb 0.00 in0.0 mm 0.00 in0.0 mm 0.00 in0.0 mm
12:25 AM 42.4°F5.8°C 42.2°F5.7°C 99% 6.4 mph NW10.3 kmh NW 11.4 mph18.3 kmh 29.81 in1009.5 mb 0.00 in0.0 mm 0.00 in0.0 mm 0.00 in0.0 mm
12:30 AM 42.3°F5.7°C 42.0°F5.6°C 99% 7.1 mph NW11.4 kmh NW 11.4 mph18.3 kmh 29.80 in1009.1 mb 0.00 in0.0 mm 0.00 in0.0 mm 0.00 in0.0 mm
12:35 AM 42.4°F5.8°C 42.2°F5.7°C 99% 6.2 mph NW10.0 kmh NW 10.7 mph17.2 kmh 29.80 in1009.1 mb 0.00 in0.0 mm 0.00 in0.0 mm 0.00 in0.0 mm
12:40 AM 42.1°F5.6°C 41.8°F5.4°C 99% 6.1 mph NW9.8 kmh NW 9.2 mph14.8 kmh 29.80 in1009.1 mb 0.00 in0.0 mm 0.00 in0.0 mm 0.00 in0.0 mm
12:45 AM 42.1°F5.6°C 41.8°F5.4°C 99% 6.3 mph NW10.1 kmh NW 9.2 mph14.8 kmh 29.80 in1009.1 mb 0.00 in0.0 mm 0.00 in0.0 mm 0.00 in0.0 mm
12:50 AM 42.1°F5.6°C 41.8°F5.4°C 99% 6.0 mph NW9.7 kmh NW 8.3 mph13.4 kmh 29.80 in1009.1 mb 0.00 in0.0 mm 0.00 in0.0 mm 0.00 in0.0 mm
12:55 AM 42.1°F5.6°C 41.8°F5.4°C 99% 5.5 mph NW8.9 kmh NW 8.3 mph13.4 kmh 29.80 in1009.1 mb 0.00 in0.0 mm 0.00 in0.0 mm 0.00 in0.0 mm
01:00 AM 42.1°F5.6°C 41.8°F5.4°C 99% 4.4 mph NW7.1 kmh NW 7.6 mph12.2 kmh 29.80 in1009.1 mb 0.00 in0.0 mm 0.00 in0.0 mm 0.00 in0.0 mm
01:05 AM 42.1°F5.6°C 41.8°F5.4°C 99% 4.6 mph NW7.4 kmh NW 7.6 mph12.2 kmh 29.79 in1008.8 mb 0.00 in0.0 mm 0.00 in0.0 mm 0.00 in0.0 mm
01:10 AM 41.9°F5.5°C 41.6°F5.3°C 99% 4.4 mph NW7.1 kmh NW 6.0 mph9.7 kmh 29.80 in1009.1 mb 0.00 in0.0 mm 0.00 in0.0 mm 0.00 in0.0 mm
01:15 AM 41.9°F5.5°C 41.6°F5.3°C 99% 5.2 mph WNW8.4 kmh WNW 7.6 mph12.2 kmh 29.79 in1008.8 mb 0.00 in0.0 mm 0.00 in0.0 mm 0.00 in0.0 mm
01:20 AM 41.9°F5.5°C 41.6°F5.3°C 99% 5.7 mph NW9.2 kmh NW 7.6 mph12.2 kmh 29.80 in1009.1 mb 0.00 in0.0 mm 0.00 in0.0 mm 0.00 in0.0 mm
01:25 AM 42.1°F5.6°C 41.8°F5.4°C 99% 5.7 mph NW9.2 kmh NW 8.3 mph13.4 kmh 29.80 in1009.1 mb 0.00 in0.0 mm 0.00 in0.0 mm 0.00 in0.0 mm
01:30 AM 42.1°F5.6°C 41.8°F5.4°C 99% 6.9 mph WNW11.1 kmh WNW 9.2 mph14.8 kmh 29.79 in1008.8 mb 0.00 in0.0 mm 0.00 in0.0 mm 0.00 in0.0 mm
01:35 AM 42.1°F5.6°C 41.8°F5.4°C 99% 6.5 mph WNW10.5 kmh WNW 9.2 mph14.8 kmh 29.80 in1009.1 mb 0.01 in0.3 mm 0.12 in3.0 mm 0.01 in0.3 mm
01:40 AM 42.1°F5.6°C 41.8°F5.4°C 99% 5.7 mph NW9.2 kmh NW 6.9 mph11.1 kmh 29.80 in1009.1 mb 0.01 in0.3 mm 0.00 in0.0 mm 0.01 in0.3 mm
01:45 AM 41.9°F5.5°C 41.6°F5.3°C 99% 5.9 mph NW9.5 kmh NW 7.6 mph12.2 kmh 29.80 in1009.1 mb 0.01 in0.3 mm 0.00 in0.0 mm 0.01 in0.3 mm
01:50 AM 42.1°F5.6°C 41.8°F5.4°C 99% 5.5 mph NW8.9 kmh NW 7.6 mph12.2 kmh 29.79 in1008.8 mb 0.01 in0.3 mm 0.00 in0.0 mm 0.01 in0.3 mm
01:55 AM 41.9°F5.5°C 41.6°F5.3°C 99% 5.5 mph NW8.9 kmh NW 7.6 mph12.2 kmh 29.79 in1008.8 mb 0.01 in0.3 mm 0.00 in0.0 mm 0.01 in0.3 mm
02:00 AM 41.9°F5.5°C 41.6°F5.3°C 99% 5.8 mph NW9.3 kmh NW 7.6 mph12.2 kmh 29.79 in1008.8 mb 0.01 in0.3 mm 0.00 in0.0 mm 0.01 in0.3 mm
02:05 AM 41.9°F5.5°C 41.6°F5.3°C 99% 6.3 mph NW10.1 kmh NW 9.2 mph14.8 kmh 29.79 in1008.8 mb 0.02 in0.5 mm 0.12 in3.0 mm 0.02 in0.5 mm
02:10 AM 41.9°F5.5°C 41.6°F5.3°C 99% 6.1 mph NW9.8 kmh NW 9.2 mph14.8 kmh 29.79 in1008.8 mb 0.02 in0.5 mm 0.00 in0.0 mm 0.02 in0.5 mm
02:15 AM 41.9°F5.5°C 41.6°F5.3°C 99% 5.3 mph NW8.5 kmh NW 6.0 mph9.7 kmh 29.79 in1008.8 mb 0.02 in0.5 mm 0.00 in0.0 mm 0.02 in0.5 mm
02:20 AM 42.1°F5.6°C 41.8°F5.4°C 99% 4.7 mph NW7.6 kmh NW 6.9 mph11.1 kmh 29.79 in1008.8 mb 0.02 in0.5 mm 0.00 in0.0 mm 0.02 in0.5 mm
02:25 AM 42.1°F5.6°C 41.8°F5.4°C 99% 4.3 mph NW6.9 kmh NW 6.9 mph11.1 kmh 29.79 in1008.8 mb 0.04 in1.0 mm 0.24 in6.1 mm 0.04 in1.0 mm
02:30 AM 41.9°F5.5°C 41.6°F5.3°C 99% 5.1 mph NW8.2 kmh NW 9.2 mph14.8 kmh 29.79 in1008.8 mb 0.04 in1.0 mm 0.00 in0.0 mm 0.04 in1.0 mm
02:35 AM 41.9°F5.5°C 41.6°F5.3°C 99% 6.1 mph NW9.8 kmh NW 9.2 mph14.8 kmh 29.79 in1008.8 mb 0.02 in0.5 mm 0.00 in0.0 mm 0.04 in1.0 mm
02:40 AM 41.9°F5.5°C 41.6°F5.3°C 99% 5.7 mph NW9.2 kmh NW 8.3 mph13.4 kmh 29.78 in1008.5 mb 0.02 in0.5 mm 0.00 in0.0 mm 0.04 in1.0 mm
02:45 AM 41.9°F5.5°C 41.6°F5.3°C 99% 4.1 mph WNW6.6 kmh WNW 6.9 mph11.1 kmh 29.78 in1008.5 mb 0.04 in1.0 mm 0.24 in6.1 mm 0.05 in1.3 mm
02:50 AM 41.9°F5.5°C 41.6°F5.3°C 99% 3.0 mph WNW4.8 kmh WNW 4.5 mph7.2 kmh 29.79 in1008.8 mb 0.04 in1.0 mm 0.00 in0.0 mm 0.05 in1.3 mm
02:55 AM 41.9°F5.5°C 41.6°F5.3°C 99% 3.5 mph NW5.6 kmh NW 6.0 mph9.7 kmh 29.78 in1008.5 mb 0.04 in1.0 mm 0.00 in0.0 mm 0.05 in1.3 mm
03:00 AM 41.9°F5.5°C 41.6°F5.3°C 99% 4.4 mph NW7.1 kmh NW 6.0 mph9.7 kmh 29.78 in1008.5 mb 0.04 in1.0 mm 0.00 in0.0 mm 0.05 in1.3 mm
03:05 AM 41.7°F5.4°C 41.5°F5.3°C 99% 4.5 mph NW7.2 kmh NW 6.0 mph9.7 kmh 29.78 in1008.5 mb 0.02 in0.5 mm 0.00 in0.0 mm 0.05 in1.3 mm
03:10 AM 41.7°F5.4°C 41.5°F5.3°C 99% 5.0 mph NW8.0 kmh NW 7.6 mph12.2 kmh 29.78 in1008.5 mb 0.02 in0.5 mm 0.00 in0.0 mm 0.05 in1.3 mm
03:15 AM 41.5°F5.3°C 41.3°F5.2°C 99% 5.4 mph NW8.7 kmh NW 7.6 mph12.2 kmh 29.79 in1008.8 mb 0.02 in0.5 mm 0.00 in0.0 mm 0.05 in1.3 mm
03:20 AM 41.4°F5.2°C 41.1°F5.1°C 99% 5.8 mph NNW9.3 kmh NNW 9.8 mph15.8 kmh 29.79 in1008.8 mb 0.02 in0.5 mm 0.00 in0.0 mm 0.05 in1.3 mm
03:25 AM 41.4°F5.2°C 41.1°F5.1°C 99% 5.6 mph NW9.0 kmh NW 9.8 mph15.8 kmh 29.78 in1008.5 mb 0.02 in0.5 mm 0.00 in0.0 mm 0.06 in1.5 mm
03:30 AM 41.5°F5.3°C 41.3°F5.2°C 99% 4.7 mph NW7.6 kmh NW 7.6 mph12.2 kmh 29.78 in1008.5 mb 0.02 in0.5 mm 0.00 in0.0 mm 0.06 in1.5 mm
03:35 AM 41.5°F5.3°C 41.3°F5.2°C 99% 4.3 mph NW6.9 kmh NW 6.9 mph11.1 kmh 29.79 in1008.8 mb 0.02 in0.5 mm 0.00 in0.0 mm 0.06 in1.5 mm
03:40 AM 41.5°F5.3°C 41.3°F5.2°C 99% 3.6 mph NW5.8 kmh NW 5.4 mph8.7 kmh 29.78 in1008.5 mb 0.02 in0.5 mm 0.00 in0.0 mm 0.06 in1.5 mm
03:45 AM 41.5°F5.3°C 41.3°F5.2°C 99% 3.4 mph NW5.5 kmh NW 4.5 mph7.2 kmh 29.78 in1008.5 mb 0.02 in0.5 mm 0.00 in0.0 mm 0.07 in1.8 mm
03:50 AM 41.5°F5.3°C 41.3°F5.2°C 99% 3.0 mph NW4.8 kmh NW 4.5 mph7.2 kmh 29.78 in1008.5 mb 0.02 in0.5 mm 0.00 in0.0 mm 0.07 in1.8 mm
03:55 AM 41.5°F5.3°C 41.3°F5.2°C 99% 2.7 mph NW4.3 kmh NW 3.8 mph6.1 kmh 29.78 in1008.5 mb 0.02 in0.5 mm 0.00 in0.0 mm 0.07 in1.8 mm
04:00 AM 41.5°F5.3°C 41.3°F5.2°C 99% 2.9 mph NW4.7 kmh NW 3.8 mph6.1 kmh 29.78 in1008.5 mb 0.02 in0.5 mm 0.00 in0.0 mm 0.07 in1.8 mm
04:05 AM 41.5°F5.3°C 41.3°F5.2°C 99% 2.8 mph NNW4.5 kmh NNW 3.1 mph5.0 kmh 29.79 in1008.8 mb 0.02 in0.5 mm 0.00 in0.0 mm 0.07 in1.8 mm
04:10 AM 41.5°F5.3°C 41.3°F5.2°C 99% 2.0 mph NW3.2 kmh NW 3.1 mph5.0 kmh 29.79 in1008.8 mb 0.02 in0.5 mm 0.00 in0.0 mm 0.07 in1.8 mm
04:15 AM 41.7°F5.4°C 41.5°F5.3°C 99% 1.7 mph NW2.7 kmh NW 3.1 mph5.0 kmh 29.79 in1008.8 mb 0.02 in0.5 mm 0.00 in0.0 mm 0.07 in1.8 mm
04:20 AM 41.7°F5.4°C 41.5°F5.3°C 99% 2.3 mph NW3.7 kmh NW 3.8 mph6.1 kmh 29.79 in1008.8 mb 0.02 in0.5 mm 0.00 in0.0 mm 0.07 in1.8 mm
04:25 AM 41.7°F5.4°C 41.5°F5.3°C 99% 3.9 mph NW6.3 kmh NW 7.6 mph12.2 kmh 29.79 in1008.8 mb 0.01 in0.3 mm 0.00 in0.0 mm 0.07 in1.8 mm
04:30 AM 41.7°F5.4°C 41.5°F5.3°C 99% 4.0 mph NW6.4 kmh NW 7.6 mph12.2 kmh 29.79 in1008.8 mb 0.01 in0.3 mm 0.00 in0.0 mm 0.07 in1.8 mm
04:35 AM 41.7°F5.4°C 41.5°F5.3°C 99% 3.0 mph NW4.8 kmh NW 4.5 mph7.2 kmh 29.80 in1009.1 mb 0.01 in0.3 mm 0.00 in0.0 mm 0.07 in1.8 mm
04:40 AM 41.9°F5.5°C 41.6°F5.3°C 99% 3.7 mph NW6.0 kmh NW 6.0 mph9.7 kmh 29.80 in1009.1 mb 0.01 in0.3 mm 0.00 in0.0 mm 0.07 in1.8 mm
04:45 AM 41.9°F5.5°C 41.6°F5.3°C 99% 4.2 mph NW6.8 kmh NW 6.0 mph9.7 kmh 29.79 in1008.8 mb 0.00 in0.0 mm 0.00 in0.0 mm 0.07 in1.8 mm
04:50 AM 41.9°F5.5°C 41.6°F5.3°C 99% 4.3 mph NW6.9 kmh NW 6.9 mph11.1 kmh 29.79 in1008.8 mb 0.00 in0.0 mm 0.00 in0.0 mm 0.07 in1.8 mm
04:55 AM 41.9°F5.5°C 41.6°F5.3°C 99% 4.8 mph NW7.7 kmh NW 7.6 mph12.2 kmh 29.80 in1009.1 mb 0.00 in0.0 mm 0.00 in0.0 mm 0.07 in1.8 mm
05:00 AM 41.9°F5.5°C 41.6°F5.3°C 99% 5.1 mph NW8.2 kmh NW 7.6 mph12.2 kmh 29.81 in1009.5 mb 0.01 in0.3 mm 0.01 in0.3 mm 0.08 in2.0 mm
05:05 AM 42.1°F5.6°C 41.8°F5.4°C 99% 5.3 mph WNW8.5 kmh WNW 6.9 mph11.1 kmh 29.80 in1009.1 mb 0.01 in0.3 mm 0.00 in0.0 mm 0.08 in2.0 mm
05:10 AM 41.9°F5.5°C 41.6°F5.3°C 99% 4.6 mph NW7.4 kmh NW 6.9 mph11.1 kmh 29.80 in1009.1 mb 0.01 in0.3 mm 0.00 in0.0 mm 0.08 in2.0 mm
05:15 AM 42.1°F5.6°C 41.8°F5.4°C 99% 3.5 mph NW5.6 kmh NW 4.5 mph7.2 kmh 29.80 in1009.1 mb 0.01 in0.3 mm 0.00 in0.0 mm 0.08 in2.0 mm
05:20 AM 42.1°F5.6°C 41.8°F5.4°C 99% 3.9 mph NW6.3 kmh NW 5.4 mph8.7 kmh 29.81 in1009.5 mb 0.01 in0.3 mm 0.00 in0.0 mm 0.08 in2.0 mm
05:25 AM 42.1°F5.6°C 41.8°F5.4°C 99% 4.5 mph NW7.2 kmh NW 6.0 mph9.7 kmh 29.81 in1009.5 mb 0.01 in0.3 mm 0.00 in0.0 mm 0.08 in2.0 mm
05:30 AM 42.1°F5.6°C 41.8°F5.4°C 99% 4.7 mph NW7.6 kmh NW 6.0 mph9.7 kmh 29.82 in1009.8 mb 0.01 in0.3 mm 0.00 in0.0 mm 0.08 in2.0 mm
05:35 AM 42.3°F5.7°C 42.0°F5.6°C 99% 4.7 mph WNW7.6 kmh WNW 6.0 mph9.7 kmh 29.82 in1009.8 mb 0.01 in0.3 mm 0.00 in0.0 mm 0.08 in2.0 mm
05:40 AM 42.3°F5.7°C 42.0°F5.6°C 99% 5.2 mph NW8.4 kmh NW 6.9 mph11.1 kmh 29.82 in1009.8 mb 0.01 in0.3 mm 0.00 in0.0 mm 0.08 in2.0 mm
05:45 AM 42.1°F5.6°C 41.8°F5.4°C 99% 4.9 mph NW7.9 kmh NW 6.9 mph11.1 kmh 29.82 in1009.8 mb 0.01 in0.3 mm 0.00 in0.0 mm 0.08 in2.0 mm
05:50 AM 42.3°F5.7°C 42.0°F5.6°C 99% 3.8 mph WNW6.1 kmh WNW 6.0 mph9.7 kmh 29.82 in1009.8 mb 0.01 in0.3 mm 0.00 in0.0 mm 0.08 in2.0 mm
05:55 AM 42.3°F5.7°C 42.0°F5.6°C 99% 3.9 mph WNW6.3 kmh WNW 6.0 mph9.7 kmh 29.83 in1010.2 mb 0.02 in0.5 mm 0.12 in3.0 mm 0.09 in2.3 mm
06:00 AM 42.4°F5.8°C 42.2°F5.7°C 99% 4.1 mph WNW6.6 kmh WNW 6.0 mph9.7 kmh 29.83 in1010.2 mb 0.01 in0.3 mm 0.00 in0.0 mm 0.09 in2.3 mm
06:05 AM 42.4°F5.8°C 42.2°F5.7°C 99% 4.4 mph WNW7.1 kmh WNW 6.0 mph9.7 kmh 29.83 in1010.2 mb 0.01 in0.3 mm 0.00 in0.0 mm 0.09 in2.3 mm
06:10 AM 42.4°F5.8°C 42.2°F5.7°C 99% 5.5 mph WNW8.9 kmh WNW 8.3 mph13.4 kmh 29.84 in1010.5 mb 0.01 in0.3 mm 0.00 in0.0 mm 0.09 in2.3 mm
06:15 AM 42.4°F5.8°C 42.2°F5.7°C 99% 6.7 mph W10.8 kmh W 9.8 mph15.8 kmh 29.83 in1010.2 mb 0.01 in0.3 mm 0.00 in0.0 mm 0.09 in2.3 mm
06:20 AM 42.3°F5.7°C 42.0°F5.6°C 99% 7.4 mph W11.9 kmh W 9.8 mph15.8 kmh 29.84 in1010.5 mb 0.01 in0.3 mm 0.00 in0.0 mm 0.09 in2.3 mm
06:25 AM 42.4°F5.8°C 42.2°F5.7°C 99% 7.3 mph W11.7 kmh W 9.8 mph15.8 kmh 29.84 in1010.5 mb 0.01 in0.3 mm 0.00 in0.0 mm 0.09 in2.3 mm
06:30 AM 42.4°F5.8°C 42.2°F5.7°C 99% 6.2 mph W10.0 kmh W 9.2 mph14.8 kmh 29.84 in1010.5 mb 0.01 in0.3 mm 0.00 in0.0 mm 0.09 in2.3 mm
06:35 AM 42.4°F5.8°C 42.2°F5.7°C 99% 5.7 mph W9.2 kmh W 7.6 mph12.2 kmh 29.84 in1010.5 mb 0.01 in0.3 mm 0.00 in0.0 mm 0.09 in2.3 mm
06:40 AM 42.4°F5.8°C 42.2°F5.7°C 99% 4.9 mph W7.9 kmh W 7.6 mph12.2 kmh 29.85 in1010.8 mb 0.01 in0.3 mm 0.00 in0.0 mm 0.09 in2.3 mm
06:45 AM 42.3°F5.7°C 42.0°F5.6°C 99% 4.7 mph WNW7.6 kmh WNW 6.9 mph11.1 kmh 29.85 in1010.8 mb 0.01 in0.3 mm 0.00 in0.0 mm 0.09 in2.3 mm
06:50 AM 42.3°F5.7°C 42.0°F5.6°C 99% 4.9 mph WNW7.9 kmh WNW 6.9 mph11.1 kmh 29.86 in1011.2 mb 0.01 in0.3 mm 0.00 in0.0 mm 0.09 in2.3 mm
06:55 AM 42.3°F5.7°C 42.0°F5.6°C 99% 4.4 mph W7.1 kmh W 5.4 mph8.7 kmh 29.86 in1011.2 mb 0.00 in0.0 mm 0.00 in0.0 mm 0.09 in2.3 mm
07:00 AM 42.3°F5.7°C 42.0°F5.6°C 99% 4.7 mph WNW7.6 kmh WNW 6.9 mph11.1 kmh 29.86 in1011.2 mb 0.00 in0.0 mm 0.00 in0.0 mm 0.09 in2.3 mm
07:05 AM 42.3°F5.7°C 42.0°F5.6°C 99% 5.5 mph WNW8.9 kmh WNW 7.6 mph12.2 kmh 29.86 in1011.2 mb 0.00 in0.0 mm 0.00 in0.0 mm 0.09 in2.3 mm
07:10 AM 42.3°F5.7°C 42.0°F5.6°C 99% 6.1 mph WNW9.8 kmh WNW 7.6 mph12.2 kmh 29.86 in1011.2 mb 0.00 in0.0 mm 0.00 in0.0 mm 0.09 in2.3 mm
07:15 AM 42.3°F5.7°C 42.0°F5.6°C 99% 5.2 mph WNW8.4 kmh WNW 6.9 mph11.1 kmh 29.87 in1011.5 mb 0.00 in0.0 mm 0.00 in0.0 mm 0.09 in2.3 mm
07:20 AM 42.3°F5.7°C 42.0°F5.6°C 99% 5.6 mph WNW9.0 kmh WNW 9.8 mph15.8 kmh 29.88 in1011.9 mb 0.00 in0.0 mm 0.00 in0.0 mm 0.09 in2.3 mm
07:25 AM 42.3°F5.7°C 42.0°F5.6°C 99% 5.4 mph WNW8.7 kmh WNW 9.8 mph15.8 kmh 29.88 in1011.9 mb 0.00 in0.0 mm 0.00 in0.0 mm 0.09 in2.3 mm
07:30 AM 42.3°F5.7°C 42.0°F5.6°C 99% 4.7 mph WNW7.6 kmh WNW 6.0 mph9.7 kmh 29.89 in1012.2 mb 0.00 in0.0 mm 0.00 in0.0 mm 0.09 in2.3 mm
07:35 AM 42.3°F5.7°C 42.0°F5.6°C 99% 5.7 mph W9.2 kmh W 8.3 mph13.4 kmh 29.89 in1012.2 mb 0.00 in0.0 mm 0.00 in0.0 mm 0.09 in2.3 mm
07:40 AM 42.3°F5.7°C 42.0°F5.6°C 99% 5.6 mph WNW9.0 kmh WNW 8.3 mph13.4 kmh 29.89 in1012.2 mb 0.00 in0.0 mm 0.00 in0.0 mm 0.09 in2.3 mm
07:45 AM 42.3°F5.7°C 42.0°F5.6°C 99% 5.1 mph W8.2 kmh W 6.9 mph11.1 kmh 29.89 in1012.2 mb 0.00 in0.0 mm 0.00 in0.0 mm 0.09 in2.3 mm
07:50 AM 42.3°F5.7°C 42.0°F5.6°C 99% 5.0 mph W8.0 kmh W 6.9 mph11.1 kmh 29.90 in1012.5 mb 0.00 in0.0 mm 0.00 in0.0 mm 0.09 in2.3 mm
07:55 AM 42.3°F5.7°C 42.0°F5.6°C 99% 4.9 mph WNW7.9 kmh WNW 6.9 mph11.1 kmh 29.90 in1012.5 mb 0.00 in0.0 mm 0.00 in0.0 mm 0.09 in2.3 mm
08:00 AM 42.4°F5.8°C 42.2°F5.7°C 99% 5.2 mph WNW8.4 kmh WNW 7.6 mph12.2 kmh 29.90 in1012.5 mb 0.00 in0.0 mm 0.00 in0.0 mm 0.09 in2.3 mm
08:05 AM 42.6°F5.9°C 42.4°F5.8°C 99% 6.3 mph WNW10.1 kmh WNW 9.8 mph15.8 kmh 29.90 in1012.5 mb 0.00 in0.0 mm 0.00 in0.0 mm 0.09 in2.3 mm
08:10 AM 42.8°F6.0°C 42.5°F5.8°C 99% 6.6 mph WNW10.6 kmh WNW 9.8 mph15.8 kmh 29.91 in1012.9 mb 0.00 in0.0 mm 0.00 in0.0 mm 0.09 in2.3 mm
08:15 AM 42.8°F6.0°C 42.5°F5.8°C 99% 5.6 mph WNW9.0 kmh WNW 6.9 mph11.1 kmh 29.91 in1012.9 mb 0.00 in0.0 mm 0.00 in0.0 mm 0.09 in2.3 mm
08:20 AM 42.8°F6.0°C 42.5°F5.8°C 99% 5.7 mph WNW9.2 kmh WNW 6.9 mph11.1 kmh 29.91 in1012.9 mb 0.00 in0.0 mm 0.00 in0.0 mm 0.09 in2.3 mm
08:25 AM 43.0°F6.1°C 42.7°F5.9°C 99% 4.9 mph WNW7.9 kmh WNW 6.9 mph11.1 kmh 29.90 in1012.5 mb 0.00 in0.0 mm 0.00 in0.0 mm 0.09 in2.3 mm
08:30 AM 43.2°F6.2°C 42.9°F6.1°C 99% 4.5 mph NW7.2 kmh NW 6.9 mph11.1 kmh 29.91 in1012.9 mb 0.00 in0.0 mm 0.00 in0.0 mm 0.09 in2.3 mm
08:35 AM 43.0°F6.1°C 42.7°F5.9°C 99% 5.5 mph NW8.9 kmh NW 6.9 mph11.1 kmh 29.90 in1012.5 mb 0.00 in0.0 mm 0.00 in0.0 mm 0.09 in2.3 mm
08:40 AM 43.2°F6.2°C 42.9°F6.1°C 99% 5.4 mph NW8.7 kmh NW 6.9 mph11.1 kmh 29.90 in1012.5 mb 0.00 in0.0 mm 0.00 in0.0 mm 0.09 in2.3 mm
08:45 AM 43.2°F6.2°C 42.9°F6.1°C 99% 6.2 mph NW10.0 kmh NW 9.2 mph14.8 kmh 29.91 in1012.9 mb 0.00 in0.0 mm 0.00 in0.0 mm 0.09 in2.3 mm
08:50 AM 43.2°F6.2°C 42.9°F6.1°C 99% 7.2 mph WNW11.6 kmh WNW 9.2 mph14.8 kmh 29.91 in1012.9 mb 0.00 in0.0 mm 0.00 in0.0 mm 0.09 in2.3 mm
08:55 AM 43.3°F6.3°C 43.1°F6.2°C 99% 7.4 mph NW11.9 kmh NW 9.2 mph14.8 kmh 29.91 in1012.9 mb 0.00 in0.0 mm 0.00 in0.0 mm 0.09 in2.3 mm
09:00 AM 43.5°F6.4°C 43.3°F6.3°C 99% 7.0 mph NW11.3 kmh NW 9.2 mph14.8 kmh 29.91 in1012.9 mb 0.00 in0.0 mm 0.00 in0.0 mm 0.09 in2.3 mm
09:05 AM 43.9°F6.6°C 43.6°F6.4°C 99% 5.4 mph NW8.7 kmh NW 6.9 mph11.1 kmh 29.91 in1012.9 mb 0.00 in0.0 mm 0.00 in0.0 mm 0.09 in2.3 mm
09:10 AM 43.7°F6.5°C 43.4°F6.3°C 99% 6.0 mph WNW9.7 kmh WNW 9.2 mph14.8 kmh 29.91 in1012.9 mb 0.00 in0.0 mm 0.00 in0.0 mm 0.09 in2.3 mm
09:15 AM 43.7°F6.5°C 43.2°F6.2°C 98% 6.6 mph WNW10.6 kmh WNW 9.2 mph14.8 kmh 29.92 in1013.2 mb 0.00 in0.0 mm 0.00 in0.0 mm 0.09 in2.3 mm
09:20 AM 44.1°F6.7°C 43.5°F6.4°C 98% 6.4 mph NW10.3 kmh NW 8.3 mph13.4 kmh 29.92 in1013.2 mb 0.00 in0.0 mm 0.00 in0.0 mm 0.09 in2.3 mm
09:25 AM 44.2°F6.8°C 43.7°F6.5°C 98% 6.0 mph NW9.7 kmh NW 7.6 mph12.2 kmh 29.92 in1013.2 mb 0.00 in0.0 mm 0.00 in0.0 mm 0.09 in2.3 mm
09:30 AM 44.2°F6.8°C 43.4°F6.3°C 97% 5.6 mph NW9.0 kmh NW 9.8 mph15.8 kmh 29.92 in1013.2 mb 0.00 in0.0 mm 0.00 in0.0 mm 0.09 in2.3 mm
09:35 AM 44.1°F6.7°C 43.3°F6.3°C 97% 6.3 mph NW10.1 kmh NW 10.7 mph17.2 kmh 29.92 in1013.2 mb 0.00 in0.0 mm 0.00 in0.0 mm 0.09 in2.3 mm
09:40 AM 44.2°F6.8°C 43.4°F6.3°C 97% 6.1 mph NW9.8 kmh NW 10.7 mph17.2 kmh 29.92 in1013.2 mb 0.00 in0.0 mm 0.00 in0.0 mm 0.09 in2.3 mm
09:45 AM 45.1°F7.3°C 44.3°F6.8°C 97% 6.1 mph NW9.8 kmh NW 8.3 mph13.4 kmh 29.92 in1013.2 mb 0.00 in0.0 mm 0.00 in0.0 mm 0.09 in2.3 mm
09:50 AM 46.8°F8.2°C 46.0°F7.8°C 97% 7.4 mph NW11.9 kmh NW 9.8 mph15.8 kmh 29.92 in1013.2 mb 0.00 in0.0 mm 0.00 in0.0 mm 0.09 in2.3 mm
10:05 AM 46.4°F8.0°C 44.2°F6.8°C 92% 8.2 mph NW13.2 kmh NW 11.4 mph18.3 kmh 29.92 in1013.2 mb 0.00 in0.0 mm 0.00 in0.0 mm 0.09 in2.3 mm
10:10 AM 46.2°F7.9°C 44.3°F6.8°C 93% 7.5 mph NW12.1 kmh NW 11.4 mph18.3 kmh 29.92 in1013.2 mb 0.00 in0.0 mm 0.00 in0.0 mm 0.09 in2.3 mm
10:15 AM 46.0°F7.8°C 44.1°F6.7°C 93% 6.1 mph NW9.8 kmh NW 8.3 mph13.4 kmh 29.92 in1013.2 mb 0.00 in0.0 mm 0.00 in0.0 mm 0.09 in2.3 mm
10:20 AM 46.2°F7.9°C 44.3°F6.8°C 93% 6.2 mph NW10.0 kmh NW 8.3 mph13.4 kmh 29.93 in1013.5 mb 0.00 in0.0 mm 0.00 in0.0 mm 0.09 in2.3 mm
10:25 AM 46.6°F8.1°C 44.7°F7.1°C 93% 7.7 mph NW12.4 kmh NW 9.8 mph15.8 kmh 29.93 in1013.5 mb 0.00 in0.0 mm 0.00 in0.0 mm 0.09 in2.3 mm
10:30 AM 46.6°F8.1°C 44.4°F6.9°C 92% 8.4 mph NW13.5 kmh NW 9.8 mph15.8 kmh 29.93 in1013.5 mb 0.00 in0.0 mm 0.00 in0.0 mm 0.09 in2.3 mm
10:35 AM 46.2°F7.9°C 44.0°F6.7°C 92% 7.7 mph NNW12.4 kmh NNW 9.2 mph14.8 kmh 29.93 in1013.5 mb 0.00 in0.0 mm 0.00 in0.0 mm 0.09 in2.3 mm
10:40 AM 45.9°F7.7°C 44.0°F6.7°C 93% 7.1 mph NW11.4 kmh NW 9.2 mph14.8 kmh 29.93 in1013.5 mb 0.00 in0.0 mm 0.00 in0.0 mm 0.09 in2.3 mm
10:45 AM 45.7°F7.6°C 43.5°F6.4°C 92% 8.5 mph NW13.7 kmh NW 12.1 mph19.5 kmh 29.93 in1013.5 mb 0.00 in0.0 mm 0.00 in0.0 mm 0.09 in2.3 mm
10:50 AM 46.0°F7.8°C 44.4°F6.9°C 94% 8.9 mph NW14.3 kmh NW 12.1 mph19.5 kmh 29.93 in1013.5 mb 0.00 in0.0 mm 0.00 in0.0 mm 0.09 in2.3 mm
10:55 AM 46.0°F7.8°C 44.4°F6.9°C 94% 7.5 mph NW12.1 kmh NW 8.3 mph13.4 kmh 29.93 in1013.5 mb 0.00 in0.0 mm 0.00 in0.0 mm 0.09 in2.3 mm
11:00 AM 45.5°F7.5°C 44.2°F6.8°C 95% 7.2 mph NW11.6 kmh NW 9.2 mph14.8 kmh 29.93 in1013.5 mb 0.00 in0.0 mm 0.00 in0.0 mm 0.09 in2.3 mm
11:05 AM 45.3°F7.4°C 44.2°F6.8°C 96% 7.9 mph NW12.7 kmh NW 9.8 mph15.8 kmh 29.93 in1013.5 mb 0.00 in0.0 mm 0.00 in0.0 mm 0.09 in2.3 mm
11:10 AM 45.3°F7.4°C 44.5°F6.9°C 97% 8.6 mph NW13.8 kmh NW 9.8 mph15.8 kmh 29.93 in1013.5 mb 0.00 in0.0 mm 0.00 in0.0 mm 0.09 in2.3 mm
11:15 AM 45.5°F7.5°C 44.7°F7.1°C 97% 7.7 mph NW12.4 kmh NW 9.8 mph15.8 kmh 29.93 in1013.5 mb 0.00 in0.0 mm 0.00 in0.0 mm 0.09 in2.3 mm
11:20 AM 45.3°F7.4°C 44.5°F6.9°C 97% 6.3 mph NW10.1 kmh NW 9.2 mph14.8 kmh 29.93 in1013.5 mb 0.00 in0.0 mm 0.00 in0.0 mm 0.09 in2.3 mm
11:25 AM 45.5°F7.5°C 44.7°F7.1°C 97% 5.8 mph NW9.3 kmh NW 7.6 mph12.2 kmh 29.92 in1013.2 mb 0.00 in0.0 mm 0.00 in0.0 mm 0.09 in2.3 mm
11:30 AM 45.7°F7.6°C 44.9°F7.2°C 97% 5.2 mph NW8.4 kmh NW 7.6 mph12.2 kmh 29.92 in1013.2 mb 0.00 in0.0 mm 0.00 in0.0 mm 0.09 in2.3 mm
11:35 AM 45.7°F7.6°C 44.9°F7.2°C 97% 4.9 mph NW7.9 kmh NW 6.9 mph11.1 kmh 29.93 in1013.5 mb 0.00 in0.0 mm 0.00 in0.0 mm 0.09 in2.3 mm
11:40 AM 45.7°F7.6°C 44.9°F7.2°C 97% 5.4 mph NW8.7 kmh NW 6.9 mph11.1 kmh 29.92 in1013.2 mb 0.00 in0.0 mm 0.00 in0.0 mm 0.09 in2.3 mm
11:45 AM 45.5°F7.5°C 44.7°F7.1°C 97% 6.0 mph NW9.7 kmh NW 8.3 mph13.4 kmh 29.92 in1013.2 mb 0.00 in0.0 mm 0.00 in0.0 mm 0.09 in2.3 mm
11:50 AM 45.9°F7.7°C 45.3°F7.4°C 98% 6.1 mph NW9.8 kmh NW 8.3 mph13.4 kmh 29.93 in1013.5 mb 0.00 in0.0 mm 0.00 in0.0 mm 0.09 in2.3 mm
11:55 AM 45.9°F7.7°C 45.3°F7.4°C 98% 5.4 mph WNW8.7 kmh WNW 7.6 mph12.2 kmh 29.92 in1013.2 mb 0.00 in0.0 mm 0.00 in0.0 mm 0.09 in2.3 mm
12:00 PM 46.0°F7.8°C 45.5°F7.5°C 98% 5.1 mph WNW8.2 kmh WNW 6.9 mph11.1 kmh 29.92 in1013.2 mb 0.00 in0.0 mm 0.00 in0.0 mm 0.09 in2.3 mm
12:05 PM 46.0°F7.8°C 45.5°F7.5°C 98% 5.2 mph WNW8.4 kmh WNW 6.9 mph11.1 kmh 29.91 in1012.9 mb 0.00 in0.0 mm 0.00 in0.0 mm 0.09 in2.3 mm
12:10 PM 46.2°F7.9°C 45.7°F7.6°C 98% 5.1 mph NW8.2 kmh NW 6.9 mph11.1 kmh 29.92 in1013.2 mb 0.01 in0.3 mm 0.12 in3.0 mm 0.11 in2.8 mm
12:15 PM 46.4°F8.0°C 45.9°F7.7°C 98% 5.0 mph NW8.0 kmh NW 6.9 mph11.1 kmh 29.91 in1012.9 mb 0.01 in0.3 mm 0.00 in0.0 mm 0.11 in2.8 mm
12:20 PM 46.6°F8.1°C 46.3°F7.9°C 99% 4.8 mph NW7.7 kmh NW 6.9 mph11.1 kmh 29.91 in1012.9 mb 0.01 in0.3 mm 0.00 in0.0 mm 0.11 in2.8 mm
12:25 PM 46.8°F8.2°C 46.5°F8.1°C 99% 4.6 mph NW7.4 kmh NW 6.9 mph11.1 kmh 29.91 in1012.9 mb 0.01 in0.3 mm 0.00 in0.0 mm 0.11 in2.8 mm
12:30 PM 46.8°F8.2°C 46.2°F7.9°C 98% 4.4 mph NNW7.1 kmh NNW 6.9 mph11.1 kmh 29.91 in1012.9 mb 0.01 in0.3 mm 0.00 in0.0 mm 0.11 in2.8 mm
12:35 PM 46.9°F8.3°C 46.4°F8.0°C 98% 5.1 mph NW8.2 kmh NW 7.6 mph12.2 kmh 29.91 in1012.9 mb 0.01 in0.3 mm 0.00 in0.0 mm 0.11 in2.8 mm
12:40 PM 46.9°F8.3°C 46.7°F8.2°C 99% 6.0 mph NW9.7 kmh NW 7.6 mph12.2 kmh 29.90 in1012.5 mb 0.01 in0.3 mm 0.00 in0.0 mm 0.11 in2.8 mm
12:45 PM 47.7°F8.7°C 47.4°F8.6°C 99% 5.6 mph NW9.0 kmh NW 6.9 mph11.1 kmh 29.90 in1012.5 mb 0.01 in0.3 mm 0.00 in0.0 mm 0.11 in2.8 mm
12:50 PM 48.0°F8.9°C 47.8°F8.8°C 99% 4.7 mph NW7.6 kmh NW 6.9 mph11.1 kmh 29.89 in1012.2 mb 0.01 in0.3 mm 0.00 in0.0 mm 0.11 in2.8 mm
12:55 PM 48.0°F8.9°C 47.5°F8.6°C 98% 4.9 mph NW7.9 kmh NW 8.3 mph13.4 kmh 29.89 in1012.2 mb 0.01 in0.3 mm 0.00 in0.0 mm 0.11 in2.8 mm
01:00 PM 47.8°F8.8°C 47.3°F8.5°C 98% 6.2 mph NW10.0 kmh NW 8.3 mph13.4 kmh 29.89 in1012.2 mb 0.01 in0.3 mm 0.00 in0.0 mm 0.11 in2.8 mm
01:05 PM 48.6°F9.2°C 48.0°F8.9°C 98% 6.5 mph NW10.5 kmh NW 7.6 mph12.2 kmh 29.89 in1012.2 mb 0.00 in0.0 mm 0.00 in0.0 mm 0.11 in2.8 mm
01:10 PM 49.1°F9.5°C 48.3°F9.1°C 97% 5.5 mph NW8.9 kmh NW 7.6 mph12.2 kmh 29.89 in1012.2 mb 0.00 in0.0 mm 0.00 in0.0 mm 0.11 in2.8 mm
01:15 PM 48.9°F9.4°C 48.1°F8.9°C 97% 5.0 mph WNW8.0 kmh WNW 7.6 mph12.2 kmh 29.88 in1011.9 mb 0.00 in0.0 mm 0.00 in0.0 mm 0.11 in2.8 mm
01:20 PM 48.7°F9.3°C 47.7°F8.7°C 96% 5.6 mph NW9.0 kmh NW 7.6 mph12.2 kmh 29.88 in1011.9 mb 0.00 in0.0 mm 0.00 in0.0 mm 0.11 in2.8 mm
01:25 PM 48.6°F9.2°C 47.5°F8.6°C 96% 5.6 mph NW9.0 kmh NW 7.6 mph12.2 kmh 29.88 in1011.9 mb 0.01 in0.3 mm 0.12 in3.0 mm 0.12 in3.0 mm
01:30 PM 49.5°F9.7°C 48.6°F9.2°C 97% 5.1 mph NW8.2 kmh NW 6.0 mph9.7 kmh 29.88 in1011.9 mb 0.01 in0.3 mm 0.00 in0.0 mm 0.12 in3.0 mm
01:35 PM 50.5°F10.3°C 49.7°F9.8°C 97% 4.6 mph NW7.4 kmh NW 6.0 mph9.7 kmh 29.88 in1011.9 mb 0.01 in0.3 mm 0.00 in0.0 mm 0.12 in3.0 mm
01:40 PM 50.4°F10.2°C 49.0°F9.4°C 95% 4.5 mph NW7.2 kmh NW 6.0 mph9.7 kmh 29.87 in1011.5 mb 0.01 in0.3 mm 0.00 in0.0 mm 0.12 in3.0 mm
01:45 PM 49.6°F9.8°C 48.0°F8.9°C 94% 6.6 mph NNW10.6 kmh NNW 11.4 mph18.3 kmh 29.87 in1011.5 mb 0.01 in0.3 mm 0.00 in0.0 mm 0.12 in3.0 mm
01:50 PM 49.3°F9.6°C 47.6°F8.7°C 94% 8.1 mph NW13.0 kmh NW 12.1 mph19.5 kmh 29.87 in1011.5 mb 0.01 in0.3 mm 0.00 in0.0 mm 0.12 in3.0 mm
01:55 PM 49.1°F9.5°C 47.5°F8.6°C 94% 10.2 mph NW16.4 kmh NW 14.5 mph23.3 kmh 29.87 in1011.5 mb 0.01 in0.3 mm 0.00 in0.0 mm 0.12 in3.0 mm
02:00 PM 49.3°F9.6°C 47.9°F8.8°C 95% 10.7 mph NW17.2 kmh NW 14.5 mph23.3 kmh 29.87 in1011.5 mb 0.01 in0.3 mm 0.00 in0.0 mm 0.12 in3.0 mm
02:05 PM 49.8°F9.9°C 48.4°F9.1°C 95% 8.1 mph NW13.0 kmh NW 11.4 mph18.3 kmh 29.87 in1011.5 mb 0.01 in0.3 mm 0.00 in0.0 mm 0.12 in3.0 mm
02:10 PM 50.4°F10.2°C 48.7°F9.3°C 94% 7.9 mph NW12.7 kmh NW 12.1 mph19.5 kmh 29.87 in1011.5 mb 0.01 in0.3 mm 0.00 in0.0 mm 0.12 in3.0 mm
02:15 PM 50.0°F10.0°C 47.8°F8.8°C 92% 10.2 mph NW16.4 kmh NW 15.9 mph25.6 kmh 29.87 in1011.5 mb 0.01 in0.3 mm 0.00 in0.0 mm 0.12 in3.0 mm
02:20 PM 49.3°F9.6°C 47.1°F8.4°C 92% 11.4 mph WNW18.3 kmh WNW 15.9 mph25.6 kmh 29.87 in1011.5 mb 0.01 in0.3 mm 0.00 in0.0 mm 0.12 in3.0 mm
02:25 PM 48.7°F9.3°C 46.5°F8.1°C 92% 10.5 mph WNW16.9 kmh WNW 13.0 mph20.9 kmh 29.86 in1011.2 mb 0.00 in0.0 mm 0.00 in0.0 mm 0.12 in3.0 mm
02:30 PM 48.6°F9.2°C 46.6°F8.1°C 93% 9.5 mph NW15.3 kmh NW 13.0 mph20.9 kmh 29.87 in1011.5 mb 0.00 in0.0 mm 0.00 in0.0 mm 0.12 in3.0 mm
02:35 PM 48.6°F9.2°C 46.6°F8.1°C 93% 8.7 mph NW14.0 kmh NW 11.4 mph18.3 kmh 29.87 in1011.5 mb 0.00 in0.0 mm 0.00 in0.0 mm 0.12 in3.0 mm
02:40 PM 48.6°F9.2°C 46.9°F8.3°C 94% 8.9 mph NW14.3 kmh NW 13.0 mph20.9 kmh 29.87 in1011.5 mb 0.00 in0.0 mm 0.00 in0.0 mm 0.12 in3.0 mm
02:45 PM 48.2°F9.0°C 46.6°F8.1°C 94% 11.0 mph NW17.7 kmh NW 15.2 mph24.5 kmh 29.87 in1011.5 mb 0.00 in0.0 mm 0.00 in0.0 mm 0.12 in3.0 mm
02:50 PM 48.9°F9.4°C 47.6°F8.7°C 95% 11.0 mph NW17.7 kmh NW 15.2 mph24.5 kmh 29.87 in1011.5 mb 0.00 in0.0 mm 0.00 in0.0 mm 0.12 in3.0 mm
02:55 PM 49.8°F9.9°C 48.4°F9.1°C 95% 8.4 mph NW13.5 kmh NW 11.4 mph18.3 kmh 29.87 in1011.5 mb 0.00 in0.0 mm 0.00 in0.0 mm 0.12 in3.0 mm
03:00 PM 50.5°F10.3°C 48.9°F9.4°C 94% 6.8 mph NW10.9 kmh NW 9.2 mph14.8 kmh 29.87 in1011.5 mb 0.00 in0.0 mm 0.00 in0.0 mm 0.12 in3.0 mm
03:05 PM 51.1°F10.6°C 48.5°F9.2°C 91% 7.3 mph NNW11.7 kmh NNW 13.0 mph20.9 kmh 29.86 in1011.2 mb 0.00 in0.0 mm 0.00 in0.0 mm 0.12 in3.0 mm
03:10 PM 50.0°F10.0°C 47.2°F8.4°C 90% 8.8 mph NNW14.2 kmh NNW 13.0 mph20.9 kmh 29.86 in1011.2 mb 0.00 in0.0 mm 0.00 in0.0 mm 0.12 in3.0 mm
03:15 PM 50.0°F10.0°C 47.5°F8.6°C 91% 8.6 mph NW13.8 kmh NW 13.0 mph20.9 kmh 29.86 in1011.2 mb 0.00 in0.0 mm 0.00 in0.0 mm 0.12 in3.0 mm
03:20 PM 49.8°F9.9°C 47.3°F8.5°C 91% 7.8 mph NW12.6 kmh NW 10.7 mph17.2 kmh 29.86 in1011.2 mb 0.00 in0.0 mm 0.00 in0.0 mm 0.12 in3.0 mm
03:25 PM 49.5°F9.7°C 46.7°F8.2°C 90% 8.3 mph W13.4 kmh W 12.1 mph19.5 kmh 29.85 in1010.8 mb 0.00 in0.0 mm 0.00 in0.0 mm 0.12 in3.0 mm
03:30 PM 49.1°F9.5°C 46.6°F8.1°C 91% 8.8 mph WNW14.2 kmh WNW 12.1 mph19.5 kmh 29.85 in1010.8 mb 0.00 in0.0 mm 0.00 in0.0 mm 0.12 in3.0 mm
03:35 PM 49.1°F9.5°C 46.9°F8.3°C 92% 8.7 mph NW14.0 kmh NW 12.1 mph19.5 kmh 29.85 in1010.8 mb 0.00 in0.0 mm 0.00 in0.0 mm 0.12 in3.0 mm
03:40 PM 48.9°F9.4°C 46.7°F8.2°C 92% 8.1 mph NW13.0 kmh NW 11.4 mph18.3 kmh 29.85 in1010.8 mb 0.00 in0.0 mm 0.00 in0.0 mm 0.12 in3.0 mm
03:45 PM 48.9°F9.4°C 46.4°F8.0°C 91% 6.8 mph NNW10.9 kmh NNW 9.2 mph14.8 kmh 29.85 in1010.8 mb 0.00 in0.0 mm 0.00 in0.0 mm 0.12 in3.0 mm
03:50 PM 49.1°F9.5°C 46.9°F8.3°C 92% 6.9 mph NW11.1 kmh NW 10.7 mph17.2 kmh 29.85 in1010.8 mb 0.00 in0.0 mm 0.00 in0.0 mm 0.12 in3.0 mm
03:55 PM 49.5°F9.7°C 46.9°F8.3°C 91% 7.5 mph NW12.1 kmh NW 10.7 mph17.2 kmh 29.85 in1010.8 mb 0.00 in0.0 mm 0.00 in0.0 mm 0.12 in3.0 mm
04:00 PM 49.1°F9.5°C 46.6°F8.1°C 91% 8.5 mph NW13.7 kmh NW 11.4 mph18.3 kmh 29.85 in1010.8 mb 0.00 in0.0 mm 0.00 in0.0 mm 0.12 in3.0 mm
04:05 PM 48.9°F9.4°C 46.4°F8.0°C 91% 8.8 mph NW14.2 kmh NW 11.4 mph18.3 kmh 29.85 in1010.8 mb 0.00 in0.0 mm 0.00 in0.0 mm 0.12 in3.0 mm
04:10 PM 48.7°F9.3°C 46.2°F7.9°C 91% 7.9 mph NW12.7 kmh NW 11.4 mph18.3 kmh 29.86 in1011.2 mb 0.00 in0.0 mm 0.00 in0.0 mm 0.12 in3.0 mm
04:15 PM 48.6°F9.2°C 46.1°F7.8°C 91% 7.8 mph NW12.6 kmh NW 9.8 mph15.8 kmh 29.86 in1011.2 mb 0.00 in0.0 mm 0.00 in0.0 mm 0.12 in3.0 mm
04:20 PM 48.6°F9.2°C 46.3°F7.9°C 92% 7.0 mph NW11.3 kmh NW 9.2 mph14.8 kmh 29.86 in1011.2 mb 0.00 in0.0 mm 0.00 in0.0 mm 0.12 in3.0 mm
04:25 PM 48.7°F9.3°C 46.5°F8.1°C 92% 6.7 mph NW10.8 kmh NW 10.7 mph17.2 kmh 29.86 in1011.2 mb 0.00 in0.0 mm 0.00 in0.0 mm 0.12 in3.0 mm
04:30 PM 49.1°F9.5°C 46.6°F8.1°C 91% 7.8 mph NW12.6 kmh NW 12.1 mph19.5 kmh 29.86 in1011.2 mb 0.00 in0.0 mm 0.00 in0.0 mm 0.12 in3.0 mm
04:35 PM 49.3°F9.6°C 46.5°F8.1°C 90% 8.0 mph NW12.9 kmh NW 12.1 mph19.5 kmh 29.86 in1011.2 mb 0.00 in0.0 mm 0.00 in0.0 mm 0.12 in3.0 mm
04:40 PM 49.1°F9.5°C 46.0°F7.8°C 89% 9.0 mph NW14.5 kmh NW 13.0 mph20.9 kmh 29.87 in1011.5 mb 0.00 in0.0 mm 0.00 in0.0 mm 0.12 in3.0 mm
04:45 PM 48.9°F9.4°C 45.5°F7.5°C 88% 9.7 mph NW15.6 kmh NW 13.0 mph20.9 kmh 29.87 in1011.5 mb 0.00 in0.0 mm 0.00 in0.0 mm 0.12 in3.0 mm
04:50 PM 48.6°F9.2°C 44.6°F7.0°C 86% 9.5 mph NW15.3 kmh NW 13.0 mph20.9 kmh 29.87 in1011.5 mb 0.00 in0.0 mm 0.00 in0.0 mm 0.12 in3.0 mm
04:55 PM 48.6°F9.2°C 44.6°F7.0°C 86% 9.7 mph NW15.6 kmh NW 11.4 mph18.3 kmh 29.87 in1011.5 mb 0.00 in0.0 mm 0.00 in0.0 mm 0.12 in3.0 mm
05:00 PM 48.4°F9.1°C 44.4°F6.9°C 86% 9.9 mph NW15.9 kmh NW 13.0 mph20.9 kmh 29.87 in1011.5 mb 0.00 in0.0 mm 0.00 in0.0 mm 0.12 in3.0 mm
05:05 PM 48.2°F9.0°C 44.5°F6.9°C 87% 8.9 mph NW14.3 kmh NW 13.0 mph20.9 kmh 29.88 in1011.9 mb 0.00 in0.0 mm 0.00 in0.0 mm 0.12 in3.0 mm
05:10 PM 48.0°F8.9°C 44.6°F7.0°C 88% 7.2 mph WNW11.6 kmh WNW 8.3 mph13.4 kmh 29.87 in1011.5 mb 0.00 in0.0 mm 0.00 in0.0 mm 0.12 in3.0 mm
05:15 PM 47.8°F8.8°C 44.5°F6.9°C 88% 6.0 mph NW9.7 kmh NW 8.3 mph13.4 kmh 29.87 in1011.5 mb 0.00 in0.0 mm 0.00 in0.0 mm 0.12 in3.0 mm
05:20 PM 47.8°F8.8°C 44.5°F6.9°C 88% 5.0 mph NW8.0 kmh NW 9.2 mph14.8 kmh 29.87 in1011.5 mb 0.00 in0.0 mm 0.00 in0.0 mm 0.12 in3.0 mm
05:25 PM 47.7°F8.7°C 44.6°F7.0°C 89% 6.2 mph NW10.0 kmh NW 9.2 mph14.8 kmh 29.87 in1011.5 mb 0.00 in0.0 mm 0.00 in0.0 mm 0.12 in3.0 mm
05:30 PM 47.5°F8.6°C 44.4°F6.9°C 89% 7.0 mph NW11.3 kmh NW 9.2 mph14.8 kmh 29.88 in1011.9 mb 0.00 in0.0 mm 0.00 in0.0 mm 0.12 in3.0 mm
05:35 PM 47.3°F8.5°C 44.5°F6.9°C 90% 7.4 mph NW11.9 kmh NW 10.7 mph17.2 kmh 29.88 in1011.9 mb 0.00 in0.0 mm 0.00 in0.0 mm 0.12 in3.0 mm
05:40 PM 47.1°F8.4°C 44.3°F6.8°C 90% 6.5 mph NW10.5 kmh NW 10.7 mph17.2 kmh 29.87 in1011.5 mb 0.00 in0.0 mm 0.00 in0.0 mm 0.12 in3.0 mm
05:45 PM 47.1°F8.4°C 44.3°F6.8°C 90% 5.5 mph NW8.9 kmh NW 7.6 mph12.2 kmh 29.88 in1011.9 mb 0.00 in0.0 mm 0.00 in0.0 mm 0.12 in3.0 mm
05:50 PM 47.3°F8.5°C 44.8°F7.1°C 91% 5.0 mph NW8.0 kmh NW 7.6 mph12.2 kmh 29.88 in1011.9 mb 0.00 in0.0 mm 0.00 in0.0 mm 0.12 in3.0 mm
05:55 PM 47.3°F8.5°C 44.8°F7.1°C 91% 4.1 mph NW6.6 kmh NW 6.0 mph9.7 kmh 29.88 in1011.9 mb 0.00 in0.0 mm 0.00 in0.0 mm 0.12 in3.0 mm
06:00 PM 47.3°F8.5°C 44.5°F6.9°C 90% 5.5 mph NW8.9 kmh NW 9.2 mph14.8 kmh 29.89 in1012.2 mb 0.01 in0.3 mm 0.01 in0.3 mm 0.13 in3.3 mm
06:05 PM 47.3°F8.5°C 44.5°F6.9°C 90% 6.6 mph NW10.6 kmh NW 9.2 mph14.8 kmh 29.89 in1012.2 mb 0.01 in0.3 mm 0.00 in0.0 mm 0.13 in3.3 mm
06:10 PM 47.3°F8.5°C 44.5°F6.9°C 90% 5.4 mph NW8.7 kmh NW 9.2 mph14.8 kmh 29.88 in1011.9 mb 0.01 in0.3 mm 0.00 in0.0 mm 0.13 in3.3 mm
06:15 PM 47.3°F8.5°C 44.5°F6.9°C 90% 4.4 mph WNW7.1 kmh WNW 6.0 mph9.7 kmh 29.88 in1011.9 mb 0.01 in0.3 mm 0.00 in0.0 mm 0.13 in3.3 mm
06:20 PM 47.3°F8.5°C 44.8°F7.1°C 91% 3.3 mph WNW5.3 kmh WNW 6.0 mph9.7 kmh 29.88 in1011.9 mb 0.01 in0.3 mm 0.00 in0.0 mm 0.13 in3.3 mm
06:25 PM 47.3°F8.5°C 44.8°F7.1°C 91% 2.4 mph NW3.9 kmh NW 3.8 mph6.1 kmh 29.88 in1011.9 mb 0.01 in0.3 mm 0.00 in0.0 mm 0.13 in3.3 mm
06:30 PM 47.3°F8.5°C 44.8°F7.1°C 91% 3.6 mph NW5.8 kmh NW 6.9 mph11.1 kmh 29.88 in1011.9 mb 0.01 in0.3 mm 0.00 in0.0 mm 0.13 in3.3 mm
06:35 PM 47.5°F8.6°C 44.7°F7.1°C 90% 4.6 mph NW7.4 kmh NW 6.9 mph11.1 kmh 29.88 in1011.9 mb 0.01 in0.3 mm 0.00 in0.0 mm 0.13 in3.3 mm
06:40 PM 47.5°F8.6°C 44.7°F7.1°C 90% 5.0 mph NW8.0 kmh NW 6.9 mph11.1 kmh 29.89 in1012.2 mb 0.01 in0.3 mm 0.00 in0.0 mm 0.13 in3.3 mm
06:45 PM 47.5°F8.6°C 44.7°F7.1°C 90% 4.7 mph NW7.6 kmh NW 6.9 mph11.1 kmh 29.88 in1011.9 mb 0.01 in0.3 mm 0.00 in0.0 mm 0.13 in3.3 mm
06:50 PM 47.5°F8.6°C 44.7°F7.1°C 90% 5.1 mph NW8.2 kmh NW 9.8 mph15.8 kmh 29.88 in1011.9 mb 0.01 in0.3 mm 0.00 in0.0 mm 0.13 in3.3 mm
06:55 PM 47.7°F8.7°C 44.6°F7.0°C 89% 6.9 mph WNW11.1 kmh WNW 11.4 mph18.3 kmh 29.88 in1011.9 mb 0.01 in0.3 mm 0.00 in0.0 mm 0.13 in3.3 mm
07:00 PM 47.7°F8.7°C 44.6°F7.0°C 89% 7.3 mph WNW11.7 kmh WNW 11.4 mph18.3 kmh 29.88 in1011.9 mb 0.00 in0.0 mm 0.00 in0.0 mm 0.13 in3.3 mm
07:05 PM 47.5°F8.6°C 44.4°F6.9°C 89% 7.3 mph NNW11.7 kmh NNW 11.4 mph18.3 kmh 29.88 in1011.9 mb 0.00 in0.0 mm 0.00 in0.0 mm 0.13 in3.3 mm
07:10 PM 47.3°F8.5°C 44.5°F6.9°C 90% 7.9 mph NW12.7 kmh NW 10.7 mph17.2 kmh 29.89 in1012.2 mb 0.00 in0.0 mm 0.00 in0.0 mm 0.13 in3.3 mm
07:15 PM 47.3°F8.5°C 44.5°F6.9°C 90% 8.8 mph NW14.2 kmh NW 13.0 mph20.9 kmh 29.89 in1012.2 mb 0.00 in0.0 mm 0.00 in0.0 mm 0.13 in3.3 mm
07:20 PM 47.3°F8.5°C 44.5°F6.9°C 90% 9.4 mph NW15.1 kmh NW 13.0 mph20.9 kmh 29.89 in1012.2 mb 0.00 in0.0 mm 0.00 in0.0 mm 0.13 in3.3 mm
07:25 PM 47.3°F8.5°C 44.5°F6.9°C 90% 8.7 mph NW14.0 kmh NW 13.0 mph20.9 kmh 29.89 in1012.2 mb 0.00 in0.0 mm 0.00 in0.0 mm 0.13 in3.3 mm
07:30 PM 47.3°F8.5°C 44.5°F6.9°C 90% 7.0 mph NW11.3 kmh NW 12.1 mph19.5 kmh 29.89 in1012.2 mb 0.00 in0.0 mm 0.00 in0.0 mm 0.13 in3.3 mm
07:35 PM 47.3°F8.5°C 44.5°F6.9°C 90% 6.3 mph NW10.1 kmh NW 7.6 mph12.2 kmh 29.89 in1012.2 mb 0.00 in0.0 mm 0.00 in0.0 mm 0.13 in3.3 mm
07:40 PM 47.3°F8.5°C 44.5°F6.9°C 90% 6.0 mph NW9.7 kmh NW 7.6 mph12.2 kmh 29.89 in1012.2 mb 0.00 in0.0 mm 0.00 in0.0 mm 0.13 in3.3 mm
07:45 PM 47.3°F8.5°C 44.5°F6.9°C 90% 6.9 mph NW11.1 kmh NW 11.4 mph18.3 kmh 29.89 in1012.2 mb 0.00 in0.0 mm 0.00 in0.0 mm 0.13 in3.3 mm
07:50 PM 47.5°F8.6°C 44.4°F6.9°C 89% 10.1 mph NW16.3 kmh NW 17.4 mph28.0 kmh 29.88 in1011.9 mb 0.00 in0.0 mm 0.00 in0.0 mm 0.13 in3.3 mm
07:55 PM 47.7°F8.7°C 44.3°F6.8°C 88% 11.2 mph NW18.0 kmh NW 17.4 mph28.0 kmh 29.88 in1011.9 mb 0.00 in0.0 mm 0.00 in0.0 mm 0.13 in3.3 mm
08:00 PM 47.7°F8.7°C 44.3°F6.8°C 88% 10.7 mph NNW17.2 kmh NNW 14.5 mph23.3 kmh 29.87 in1011.5 mb 0.00 in0.0 mm 0.00 in0.0 mm 0.13 in3.3 mm
08:05 PM 47.7°F8.7°C 44.3°F6.8°C 88% 11.8 mph NNW19.0 kmh NNW 19.0 mph30.6 kmh 29.86 in1011.2 mb 0.00 in0.0 mm 0.00 in0.0 mm 0.13 in3.3 mm
08:10 PM 47.7°F8.7°C 44.0°F6.7°C 87% 13.4 mph N21.6 kmh N 19.0 mph30.6 kmh 29.86 in1011.2 mb 0.00 in0.0 mm 0.00 in0.0 mm 0.13 in3.3 mm
08:15 PM 47.8°F8.8°C 43.9°F6.6°C 86% 14.8 mph N23.8 kmh N 17.4 mph28.0 kmh 29.85 in1010.8 mb 0.00 in0.0 mm 0.00 in0.0 mm 0.13 in3.3 mm
08:20 PM 47.8°F8.8°C 43.9°F6.6°C 86% 16.3 mph NW26.2 kmh NW 19.7 mph31.7 kmh 29.86 in1011.2 mb 0.00 in0.0 mm 0.00 in0.0 mm 0.13 in3.3 mm
08:25 PM 47.8°F8.8°C 43.6°F6.4°C 85% 16.2 mph NW26.1 kmh NW 19.7 mph31.7 kmh 29.86 in1011.2 mb 0.00 in0.0 mm 0.00 in0.0 mm 0.13 in3.3 mm
08:30 PM 48.0°F8.9°C 43.7°F6.5°C 85% 14.1 mph NW22.7 kmh NW 19.7 mph31.7 kmh 29.86 in1011.2 mb 0.00 in0.0 mm 0.00 in0.0 mm 0.13 in3.3 mm
08:35 PM 48.0°F8.9°C 43.7°F6.5°C 85% 12.3 mph NW19.8 kmh NW 20.6 mph33.2 kmh 29.86 in1011.2 mb 0.00 in0.0 mm 0.00 in0.0 mm 0.13 in3.3 mm
08:40 PM 48.0°F8.9°C 43.7°F6.5°C 85% 12.2 mph NW19.6 kmh NW 20.6 mph33.2 kmh 29.86 in1011.2 mb 0.00 in0.0 mm 0.00 in0.0 mm 0.13 in3.3 mm
08:45 PM 48.0°F8.9°C 43.7°F6.5°C 85% 12.2 mph NW19.6 kmh NW 20.6 mph33.2 kmh 29.86 in1011.2 mb 0.00 in0.0 mm 0.00 in0.0 mm 0.13 in3.3 mm
08:50 PM 47.8°F8.8°C 43.9°F6.6°C 86% 11.0 mph NW17.7 kmh NW 19.0 mph30.6 kmh 29.86 in1011.2 mb 0.00 in0.0 mm 0.00 in0.0 mm 0.13 in3.3 mm
08:55 PM 47.7°F8.7°C 44.0°F6.7°C 87% 11.7 mph NW18.8 kmh NW 15.2 mph24.5 kmh 29.86 in1011.2 mb 0.00 in0.0 mm 0.00 in0.0 mm 0.13 in3.3 mm
09:00 PM 47.5°F8.6°C 44.1°F6.7°C 88% 12.4 mph NW20.0 kmh NW 18.3 mph29.5 kmh 29.86 in1011.2 mb 0.00 in0.0 mm 0.00 in0.0 mm 0.13 in3.3 mm
09:05 PM 47.3°F8.5°C 43.9°F6.6°C 88% 11.8 mph NW19.0 kmh NW 18.3 mph29.5 kmh 29.86 in1011.2 mb 0.00 in0.0 mm 0.00 in0.0 mm 0.13 in3.3 mm
09:10 PM 47.1°F8.4°C 44.0°F6.7°C 89% 12.0 mph NW19.3 kmh NW 14.5 mph23.3 kmh 29.86 in1011.2 mb 0.00 in0.0 mm 0.00 in0.0 mm 0.13 in3.3 mm
09:15 PM 47.1°F8.4°C 44.0°F6.7°C 89% 10.5 mph NW16.9 kmh NW 13.6 mph21.9 kmh 29.86 in1011.2 mb 0.00 in0.0 mm 0.00 in0.0 mm 0.13 in3.3 mm
09:20 PM 47.1°F8.4°C 44.0°F6.7°C 89% 10.0 mph NW16.1 kmh NW 13.6 mph21.9 kmh 29.86 in1011.2 mb 0.00 in0.0 mm 0.00 in0.0 mm 0.13 in3.3 mm
09:25 PM 46.9°F8.3°C 43.9°F6.6°C 89% 10.1 mph NW16.3 kmh NW 13.6 mph21.9 kmh 29.86 in1011.2 mb 0.00 in0.0 mm 0.00 in0.0 mm 0.13 in3.3 mm
09:30 PM 47.1°F8.4°C 44.0°F6.7°C 89% 10.1 mph NW16.3 kmh NW 13.0 mph20.9 kmh 29.86 in1011.2 mb 0.00 in0.0 mm 0.00 in0.0 mm 0.13 in3.3 mm
09:35 PM 47.1°F8.4°C 44.0°F6.7°C 89% 10.9 mph NW17.5 kmh NW 13.6 mph21.9 kmh 29.86 in1011.2 mb 0.00 in0.0 mm 0.00 in0.0 mm 0.13 in3.3 mm
09:40 PM 46.9°F8.3°C 43.9°F6.6°C 89% 10.6 mph WNW17.1 kmh WNW 13.6 mph21.9 kmh 29.86 in1011.2 mb 0.00 in0.0 mm 0.00 in0.0 mm 0.13 in3.3 mm
09:45 PM 46.9°F8.3°C 43.9°F6.6°C 89% 9.4 mph WNW15.1 kmh WNW 13.6 mph21.9 kmh 29.86 in1011.2 mb 0.00 in0.0 mm 0.00 in0.0 mm 0.13 in3.3 mm
09:50 PM 46.9°F8.3°C 44.2°F6.8°C 90% 8.7 mph NW14.0 kmh NW 12.1 mph19.5 kmh 29.86 in1011.2 mb 0.00 in0.0 mm 0.00 in0.0 mm 0.13 in3.3 mm
09:55 PM 46.9°F8.3°C 44.2°F6.8°C 90% 8.5 mph WNW13.7 kmh WNW 13.6 mph21.9 kmh 29.86 in1011.2 mb 0.00 in0.0 mm 0.00 in0.0 mm 0.13 in3.3 mm
10:00 PM 46.9°F8.3°C 43.9°F6.6°C 89% 9.9 mph WNW15.9 kmh WNW 13.6 mph21.9 kmh 29.86 in1011.2 mb 0.00 in0.0 mm 0.00 in0.0 mm 0.13 in3.3 mm
10:05 PM 47.1°F8.4°C 44.0°F6.7°C 89% 9.5 mph NW15.3 kmh NW 13.6 mph21.9 kmh 29.86 in1011.2 mb 0.00 in0.0 mm 0.00 in0.0 mm 0.13 in3.3 mm
10:10 PM 46.8°F8.2°C 44.0°F6.7°C 90% 7.5 mph NW12.1 kmh NW 11.4 mph18.3 kmh 29.86 in1011.2 mb 0.01 in0.3 mm 0.12 in3.0 mm 0.14 in3.6 mm
10:15 PM 46.8°F8.2°C 44.0°F6.7°C 90% 7.8 mph NW12.6 kmh NW 12.1 mph19.5 kmh 29.86 in1011.2 mb 0.01 in0.3 mm 0.00 in0.0 mm 0.14 in3.6 mm
10:20 PM 46.8°F8.2°C 44.0°F6.7°C 90% 8.7 mph NW14.0 kmh NW 12.1 mph19.5 kmh 29.86 in1011.2 mb 0.01 in0.3 mm 0.00 in0.0 mm 0.14 in3.6 mm
10:25 PM 46.8°F8.2°C 44.0°F6.7°C 90% 8.3 mph NW13.4 kmh NW 10.7 mph17.2 kmh 29.86 in1011.2 mb 0.01 in0.3 mm 0.00 in0.0 mm 0.14 in3.6 mm
10:30 PM 46.8°F8.2°C 44.0°F6.7°C 90% 8.5 mph NW13.7 kmh NW 12.1 mph19.5 kmh 29.86 in1011.2 mb 0.01 in0.3 mm 0.00 in0.0 mm 0.14 in3.6 mm
10:35 PM 46.6°F8.1°C 43.8°F6.6°C 90% 10.9 mph NW17.5 kmh NW 15.2 mph24.5 kmh 29.85 in1010.8 mb 0.01 in0.3 mm 0.00 in0.0 mm 0.14 in3.6 mm
10:40 PM 46.4°F8.0°C 43.9°F6.6°C 91% 11.2 mph NW18.0 kmh NW 15.2 mph24.5 kmh 29.86 in1011.2 mb 0.01 in0.3 mm 0.00 in0.0 mm 0.14 in3.6 mm
10:45 PM 46.4°F8.0°C 43.9°F6.6°C 91% 10.6 mph NW17.1 kmh NW 13.6 mph21.9 kmh 29.85 in1010.8 mb 0.01 in0.3 mm 0.00 in0.0 mm 0.14 in3.6 mm
10:50 PM 46.4°F8.0°C 43.9°F6.6°C 91% 10.3 mph NW16.6 kmh NW 13.6 mph21.9 kmh 29.85 in1010.8 mb 0.01 in0.3 mm 0.00 in0.0 mm 0.14 in3.6 mm
10:55 PM 46.4°F8.0°C 43.9°F6.6°C 91% 9.8 mph NW15.8 kmh NW 12.1 mph19.5 kmh 29.85 in1010.8 mb 0.01 in0.3 mm 0.00 in0.0 mm 0.14 in3.6 mm
11:00 PM 46.4°F8.0°C 43.9°F6.6°C 91% 9.7 mph NW15.6 kmh NW 12.1 mph19.5 kmh 29.85 in1010.8 mb 0.02 in0.5 mm 0.01 in0.3 mm 0.15 in3.8 mm
11:05 PM 46.4°F8.0°C 43.6°F6.4°C 90% 9.2 mph NW14.8 kmh NW 12.1 mph19.5 kmh 29.85 in1010.8 mb 0.02 in0.5 mm 0.00 in0.0 mm 0.15 in3.8 mm
11:10 PM 46.4°F8.0°C 43.6°F6.4°C 90% 11.6 mph NW18.7 kmh NW 21.3 mph34.3 kmh 29.85 in1010.8 mb 0.01 in0.3 mm 0.00 in0.0 mm 0.15 in3.8 mm
11:15 PM 46.4°F8.0°C 43.6°F6.4°C 90% 13.7 mph NW22.0 kmh NW 21.3 mph34.3 kmh 29.85 in1010.8 mb 0.01 in0.3 mm 0.00 in0.0 mm 0.15 in3.8 mm
11:20 PM 46.4°F8.0°C 43.6°F6.4°C 90% 16.2 mph NW26.1 kmh NW 22.1 mph35.6 kmh 29.85 in1010.8 mb 0.02 in0.5 mm 0.12 in3.0 mm 0.17 in4.3 mm
11:25 PM 46.2°F7.9°C 43.7°F6.5°C 91% 18.4 mph NW29.6 kmh NW 26.6 mph42.8 kmh 29.85 in1010.8 mb 0.02 in0.5 mm 0.00 in0.0 mm 0.17 in4.3 mm
11:30 PM 46.0°F7.8°C 43.8°F6.6°C 92% 18.1 mph NW29.1 kmh NW 26.6 mph42.8 kmh 29.86 in1011.2 mb 0.04 in1.0 mm 0.24 in6.1 mm 0.18 in4.6 mm
11:35 PM 45.9°F7.7°C 44.0°F6.7°C 93% 15.2 mph NW24.5 kmh NW 21.3 mph34.3 kmh 29.87 in1011.5 mb 0.05 in1.3 mm 0.12 in3.0 mm 0.19 in4.8 mm
11:40 PM 45.7°F7.6°C 44.1°F6.7°C 94% 12.2 mph WNW19.6 kmh WNW 16.8 mph27.0 kmh 29.87 in1011.5 mb 0.05 in1.3 mm 0.00 in0.0 mm 0.19 in4.8 mm
11:45 PM 45.5°F7.5°C 43.9°F6.6°C 94% 12.9 mph NW20.8 kmh NW 16.8 mph27.0 kmh 29.87 in1011.5 mb 0.06 in1.5 mm 0.12 in3.0 mm 0.20 in5.1 mm
11:50 PM 45.5°F7.5°C 43.9°F6.6°C 94% 12.3 mph WNW19.8 kmh WNW 14.5 mph23.3 kmh 29.87 in1011.5 mb 0.06 in1.5 mm 0.00 in0.0 mm 0.20 in5.1 mm
11:55 PM 45.3°F7.4°C 43.7°F6.5°C 94% 10.4 mph WNW16.7 kmh WNW 13.6 mph21.9 kmh 29.87 in1011.5 mb 0.06 in1.5 mm 0.00 in0.0 mm 0.20 in5.1 mm